createdAt,value
2019-02-20T02:48:28.329Z,82.99
2019-02-20T02:51:02.363Z,83.04
2019-02-20T05:11:49.266Z,84.36
2019-02-20T05:37:06.308Z,84.77
2019-02-20T05:39:40.730Z,84.73
2019-02-20T05:42:14.794Z,84.72
2019-02-20T05:56:20.682Z,84.74
2019-02-20T05:59:13.877Z,84.64
2019-02-20T06:01:48.627Z,84.70
2019-02-20T06:04:22.375Z,84.65
2019-02-20T06:06:58.145Z,84.68
2019-02-20T06:20:11.219Z,85.09
2019-02-20T06:22:45.583Z,85.19
2019-02-20T06:25:19.138Z,85.34
2019-02-20T06:27:52.901Z,85.44
2019-02-20T06:30:26.814Z,85.53
2019-02-20T06:33:00.931Z,85.67
2019-02-20T06:35:49.208Z,85.75
2019-02-20T06:38:35.670Z,85.82
2019-02-20T06:41:09.564Z,85.89
2019-02-20T06:43:43.735Z,85.93
2019-02-20T06:46:35.430Z,85.99
2019-02-20T06:49:20.409Z,86.04
2019-02-20T06:52:07.546Z,86.03
2019-02-20T06:54:41.587Z,86.05
2019-02-20T06:57:27.605Z,86.00
2019-02-20T07:00:01.402Z,85.98
2019-02-20T07:02:37.104Z,86.02
2019-02-20T07:05:35.006Z,86.04
2019-02-20T07:08:45.133Z,85.99
2019-02-20T07:12:10.560Z,86.01
2019-02-20T07:15:39.517Z,85.86
2019-02-20T07:18:53.930Z,85.79
2019-02-20T07:21:46.431Z,85.67
2019-02-20T07:24:52.054Z,85.69
2019-02-20T07:28:15.051Z,85.70
2019-02-20T07:30:48.859Z,85.67
2019-02-20T07:33:22.583Z,85.59
2019-02-20T07:35:56.799Z,85.55
2019-02-20T07:38:41.770Z,85.56
2019-02-20T07:41:15.699Z,85.49
2019-02-20T07:44:07.752Z,85.51
2019-02-20T07:46:55.126Z,85.38
2019-02-20T07:49:29.162Z,85.30
2019-02-20T07:52:02.607Z,85.23
2019-02-20T07:54:35.746Z,85.27
2019-02-20T07:57:09.768Z,85.06
2019-02-20T07:59:43.715Z,84.98
2019-02-20T08:02:34.998Z,84.89
2019-02-20T08:05:09.267Z,84.91
2019-02-20T08:07:42.748Z,84.80
2019-02-20T08:10:27.300Z,84.75
2019-02-20T08:13:12.907Z,84.65
2019-02-20T08:15:58.125Z,84.48
2019-02-20T08:18:44.176Z,84.20
2019-02-20T08:21:35.374Z,83.95
2019-02-20T08:24:27.492Z,83.90
2019-02-20T08:27:21.405Z,83.75
2019-02-20T08:29:54.841Z,83.73
2019-02-20T08:32:28.957Z,83.87
2019-02-20T08:35:20.345Z,83.76
2019-02-20T08:37:54.010Z,83.64
2019-02-20T08:40:41.758Z,83.67
2019-02-20T08:43:15.507Z,83.61
2019-02-20T08:45:49.731Z,83.51
2019-02-20T08:48:23.195Z,83.54
2019-02-20T08:51:13.822Z,83.53
2019-02-20T08:53:58.404Z,83.46
2019-02-20T08:56:44.008Z,83.30
2019-02-20T08:59:29.820Z,83.16
2019-02-20T09:02:03.777Z,83.24
2019-02-20T09:04:37.236Z,83.00
2019-02-20T09:07:10.797Z,82.96
2019-02-20T09:09:44.313Z,82.73
2019-02-20T09:12:18.580Z,82.67
2019-02-20T09:14:52.054Z,82.57
2019-02-20T09:17:26.229Z,82.43
2019-02-20T09:20:17.568Z,82.58
2019-02-20T09:22:52.673Z,82.56
2019-02-20T09:25:43.759Z,82.24
2019-02-20T09:28:19.463Z,82.01
2019-02-20T09:30:53.102Z,82.21
2019-02-20T09:33:27.789Z,82.04
2019-02-20T09:36:20.187Z,81.84
2019-02-20T09:38:54.251Z,81.76
2019-02-20T09:41:28.776Z,81.75
2019-02-20T09:44:13.397Z,81.66
2019-02-20T09:46:46.930Z,81.49
2019-02-20T09:49:20.391Z,81.42
2019-02-20T09:51:53.966Z,81.47
2019-02-20T09:54:27.468Z,81.28
2019-02-20T09:57:00.599Z,80.86
2019-02-20T09:59:33.980Z,80.79
2019-02-20T10:02:26.201Z,80.46
2019-02-20T10:05:11.092Z,80.24
2019-02-20T10:07:56.621Z,79.78
2019-02-20T10:10:30.380Z,79.66
2019-02-20T10:13:04.533Z,79.61
2019-02-20T10:15:56.762Z,79.42
2019-02-20T10:18:30.872Z,79.24
2019-02-20T10:21:22.409Z,79.05
2019-02-20T10:24:05.797Z,78.87
2019-02-20T10:26:39.240Z,78.86
2019-02-20T10:29:12.698Z,78.46
2019-02-20T10:31:46.218Z,78.60
2019-02-20T10:34:19.692Z,77.76
2019-02-20T10:36:53.303Z,77.41
2019-02-20T10:39:26.696Z,76.98
2019-02-20T10:42:11.746Z,76.48
2019-02-20T10:45:05.097Z,76.46
2019-02-20T10:47:50.542Z,76.24
2019-02-20T10:50:36.032Z,76.53
2019-02-20T10:53:09.215Z,76.39
2019-02-20T10:55:53.956Z,76.93
2019-02-20T10:58:27.662Z,77.16
2019-02-20T11:01:01.535Z,77.18
2019-02-20T11:03:52.980Z,77.06
2019-02-20T11:06:39.042Z,76.98
2019-02-20T11:09:23.608Z,76.68
2019-02-20T11:11:56.720Z,76.17
2019-02-20T11:14:30.843Z,76.30
2019-02-20T11:17:05.083Z,76.02
2019-02-20T11:19:51.098Z,76.39
2019-02-20T11:22:36.257Z,76.86
2019-02-20T11:25:10.499Z,77.33
2019-02-20T11:27:58.668Z,76.88
2019-02-20T11:30:49.458Z,76.84
2019-02-20T11:33:40.365Z,77.32
2019-02-20T11:36:13.871Z,77.10
2019-02-20T11:38:47.030Z,76.72
2019-02-20T11:41:20.552Z,76.47
2019-02-20T11:43:53.491Z,76.28
2019-02-20T11:46:27.935Z,75.89
2019-02-20T11:49:01.739Z,75.92
2019-02-20T11:51:35.071Z,75.52
2019-02-20T11:54:08.631Z,75.68
2019-02-20T11:56:42.446Z,75.46
2019-02-20T11:59:16.269Z,75.01
2019-02-20T12:01:49.502Z,75.14
2019-02-20T12:04:23.239Z,74.64
2019-02-20T12:06:57.096Z,74.24
2019-02-20T12:09:30.253Z,73.60
2019-02-20T12:12:03.686Z,73.57
2019-02-20T12:14:36.511Z,73.16
2019-02-20T12:17:10.428Z,72.91
2019-02-20T12:19:55.021Z,73.20
2019-02-20T12:22:28.748Z,72.91
2019-02-20T12:25:14.328Z,71.97
2019-02-20T12:27:47.966Z,71.65
2019-02-20T12:30:21.327Z,71.30
2019-02-20T12:32:55.106Z,70.95
2019-02-20T12:35:28.919Z,71.10
2019-02-20T12:38:02.981Z,70.92
2019-02-20T12:40:53.841Z,70.82
2019-02-20T12:43:27.611Z,71.31
2019-02-20T12:46:11.934Z,71.37
2019-02-20T12:49:02.766Z,70.59
2019-02-20T12:51:47.581Z,70.20
2019-02-20T12:54:21.078Z,69.72
2019-02-20T12:57:03.158Z,69.44
2019-02-20T12:59:48.131Z,69.28
2019-02-20T13:13:06.482Z,68.08
2019-02-20T13:15:40.062Z,67.88
2019-02-20T13:18:13.660Z,68.13
2019-02-20T13:20:47.551Z,68.03
2019-02-20T13:23:22.886Z,68.36
2019-02-20T13:26:13.813Z,68.85
2019-02-20T13:28:47.550Z,68.64
2019-02-20T13:31:21.665Z,68.63
2019-02-20T13:34:13.449Z,68.57
2019-02-20T13:36:46.388Z,68.27
2019-02-20T13:39:19.993Z,68.43
2019-02-20T13:41:57.038Z,67.90
2019-02-20T13:44:30.813Z,67.73
2019-02-20T13:47:21.905Z,67.74
2019-02-20T13:49:56.170Z,66.61
2019-02-20T13:52:30.488Z,66.26
2019-02-20T13:55:03.668Z,66.26
2019-02-20T13:57:37.297Z,65.96
2019-02-20T14:00:13.194Z,65.80
2019-02-20T14:02:57.519Z,66.16
2019-02-20T14:05:49.344Z,65.48
2019-02-20T14:08:35.523Z,65.33
2019-02-20T14:11:08.310Z,65.42
2019-02-20T14:13:42.387Z,65.42
2019-02-20T14:16:27.205Z,65.97
2019-02-20T14:19:00.969Z,65.46
2019-02-20T14:21:35.523Z,65.76
2019-02-20T14:35:36.210Z,64.74
2019-02-20T14:51:45.448Z,64.61
2019-02-20T14:54:19.374Z,64.66
2019-02-20T14:56:53.994Z,64.98
2019-02-20T14:59:27.824Z,65.22
2019-02-20T15:02:01.613Z,65.17
2019-02-20T15:04:36.760Z,65.25
2019-02-20T15:07:10.636Z,65.24
2019-02-20T15:09:44.920Z,65.20
2019-02-20T15:12:18.682Z,65.63
2019-02-20T15:14:52.494Z,65.21
2019-02-20T15:17:26.358Z,65.20
2019-02-20T15:20:00.475Z,64.73
2019-02-20T15:23:21.495Z,64.62
2019-02-20T15:25:56.347Z,64.41
2019-02-20T15:39:26.165Z,63.94
2019-02-20T15:41:59.966Z,63.93
2019-02-20T15:44:45.710Z,64.28
2019-02-20T15:47:29.169Z,63.88
2019-02-20T15:50:03.183Z,64.09
2019-02-20T15:52:39.841Z,64.05
2019-02-20T15:55:13.429Z,63.95
2019-02-20T15:57:47.580Z,64.01
2019-02-20T16:00:22.565Z,64.08
2019-02-20T16:02:56.851Z,64.26
2019-02-20T16:05:38.850Z,64.64
2019-02-20T16:08:12.360Z,64.73
2019-02-20T16:10:45.782Z,64.47
2019-02-20T16:13:29.457Z,64.86
2019-02-20T16:16:14.284Z,64.49
2019-02-20T16:19:09.899Z,65.00
2019-02-20T16:21:43.877Z,64.90
2019-02-20T16:24:18.932Z,64.66
2019-02-20T16:26:52.923Z,64.59
2019-02-20T16:29:26.543Z,64.88
2019-02-20T16:32:02.475Z,64.97
2019-02-20T16:34:37.746Z,64.97
2019-02-20T16:37:11.106Z,64.73
2019-02-20T16:39:57.006Z,64.55
2019-02-20T16:42:31.102Z,64.56
2019-02-20T16:45:21.754Z,64.28
2019-02-20T16:47:55.535Z,64.62
2019-02-20T16:50:30.156Z,64.52
2019-02-20T16:53:06.883Z,64.64
2019-02-20T16:55:39.099Z,64.61
2019-02-20T16:58:13.774Z,64.79
2019-02-20T17:00:49.138Z,64.90
2019-02-20T17:03:22.910Z,65.09
2019-02-20T17:05:56.827Z,65.01
2019-02-20T17:08:33.393Z,64.99
2019-02-20T17:11:10.662Z,65.19
2019-02-20T17:13:49.563Z,65.49
2019-02-20T17:16:45.225Z,65.23
2019-02-20T17:19:19.164Z,65.51
2019-02-20T17:21:58.980Z,65.59
2019-02-20T17:24:52.689Z,65.91
2019-02-20T17:27:27.387Z,66.14
2019-02-20T17:30:16.204Z,66.45
2019-02-20T17:32:50.745Z,66.52
2019-02-20T17:35:24.351Z,66.44
2019-02-20T17:37:58.019Z,66.83
2019-02-20T17:40:31.831Z,67.01
2019-02-20T17:43:18.651Z,67.05
2019-02-20T17:45:50.847Z,67.05
2019-02-20T17:48:24.319Z,67.18
2019-02-20T17:51:19.412Z,67.32
2019-02-20T17:53:53.879Z,67.57
2019-02-20T17:56:27.009Z,67.47
2019-02-20T17:59:15.777Z,67.73
2019-02-20T18:02:01.863Z,67.58
2019-02-20T18:04:49.417Z,67.58
2019-02-20T18:07:22.933Z,67.57
2019-02-20T18:09:56.293Z,67.55
2019-02-20T18:12:31.491Z,67.64
2019-02-20T18:15:04.896Z,67.54
2019-02-20T18:17:39.576Z,67.55
2019-02-20T18:20:14.346Z,67.50
2019-02-20T18:22:47.867Z,67.35
2019-02-20T18:25:21.567Z,67.61
2019-02-20T18:27:55.434Z,67.55
2019-02-20T18:30:49.788Z,67.62
2019-02-20T18:33:43.223Z,67.39
2019-02-20T18:36:16.049Z,67.22
2019-02-20T18:39:02.365Z,67.24
2019-02-20T18:41:36.231Z,67.21
2019-02-20T18:44:09.651Z,67.09
2019-02-20T18:46:42.969Z,67.34
2019-02-20T18:49:16.233Z,67.04
2019-02-20T18:52:04.294Z,67.16
2019-02-20T18:54:38.751Z,67.15
2019-02-20T18:57:54.059Z,67.17
2019-02-20T19:00:27.921Z,67.04
2019-02-20T19:03:01.053Z,67.16
2019-02-20T19:05:34.299Z,67.20
2019-02-20T19:08:44.850Z,67.31
2019-02-20T19:11:47.895Z,67.11
2019-02-20T19:14:43.220Z,67.31
2019-02-20T19:17:47.587Z,67.41
2019-02-20T19:28:16.490Z,67.67
2019-02-20T19:31:25.360Z,67.93
2019-02-20T19:34:50.725Z,67.80
2019-02-20T19:38:05.880Z,67.89
2019-02-20T19:40:52.898Z,67.73
2019-02-20T19:43:44.386Z,67.81
2019-02-20T19:46:58.408Z,67.91
2019-02-20T19:49:38.065Z,67.90
2019-02-20T19:53:15.752Z,68.25
2019-02-20T19:56:37.843Z,68.02
2019-02-20T19:59:54.585Z,68.16
2019-02-20T20:03:24.043Z,68.53
2019-02-20T20:06:09.435Z,68.45
2019-02-20T20:33:40.508Z,69.13
2019-02-20T20:37:14.510Z,69.26
2019-02-20T20:40:01.679Z,69.34
2019-02-20T20:43:22.249Z,69.49
2019-02-20T20:46:29.406Z,69.70
2019-02-20T20:49:45.725Z,69.85
2019-02-20T20:52:58.856Z,70.10
2019-02-20T20:56:02.325Z,70.17
2019-02-20T21:56:00.445Z,71.45
2019-02-20T21:59:20.919Z,71.36
2019-02-20T22:02:35.801Z,71.50
2019-02-20T22:05:53.580Z,71.44
2019-02-20T22:09:09.163Z,71.49
2019-02-20T22:12:11.716Z,71.61
2019-02-20T22:14:55.875Z,71.69
2019-02-20T22:17:56.923Z,71.78
2019-02-20T22:20:58.402Z,71.89
2019-02-20T22:23:55.259Z,71.95
2019-02-20T22:27:27.418Z,71.99
2019-02-20T22:30:42.475Z,71.95
2019-02-20T22:45:33.589Z,71.92
2019-02-20T22:48:41.802Z,71.87
2019-02-20T23:12:36.559Z,71.85
2019-02-20T23:15:10.022Z,71.85
2019-02-20T23:17:45.135Z,71.90
2019-02-20T23:20:34.362Z,72.06
2019-02-20T23:23:20.116Z,71.92
2019-02-20T23:25:56.658Z,71.95
2019-02-20T23:28:41.985Z,71.87
2019-02-20T23:31:27.606Z,71.78
2019-02-20T23:34:02.102Z,71.93
2019-02-20T23:36:40.267Z,71.80
2019-02-20T23:39:14.731Z,71.81
2019-02-20T23:41:47.768Z,71.83
2019-02-20T23:44:34.084Z,71.85
2019-02-20T23:47:08.142Z,71.82
2019-02-20T23:50:03.547Z,71.87
2019-02-20T23:52:37.682Z,71.91
2019-02-20T23:55:11.675Z,71.97
2019-02-20T23:58:03.485Z,72.07
